Time;durP1;ratioP1;P1;durP2;ratioP2;P2;SDS_P1;SDS_P2;PMS_P1;PMS_P2;Temp;Humidity;BMP_temperature;BMP_pressure;BME280_temperature;BME280_humidity;BME280_pressure;Samples;Min_cycle;Max_cycle;Signal;HPM_P1;HPM_P2
2023/04/11 00:00:03;;;;;;;3.97;2.20;;;;;;;19.58;33.25;98377.28;6971308;28;20239;-79
2023/04/11 00:03:27;;;;;;;4.70;2.40;;;;;;;19.91;32.69;98376.72;6972122;28;20230;-79
2023/04/11 00:06:49;;;;;;;2.30;2.10;;;;;;;19.48;33.73;98366.31;6974065;28;20210;-78
2023/04/11 00:10:10;;;;;;;2.67;2.00;;;;;;;19.53;33.81;98361.69;6970976;28;20203;-78
2023/04/11 00:13:33;;;;;;;2.83;2.20;;;;;;;19.28;34.47;98353.44;6972372;28;20699;-78
2023/04/11 00:16:54;;;;;;;3.90;2.30;;;;;;;19.34;34.56;98329.69;6971762;28;20206;-78
2023/04/11 00:20:17;;;;;;;3.30;1.90;;;;;;;19.48;34.64;98328.03;6971241;28;20226;-79
2023/04/11 00:23:39;;;;;;;2.10;1.93;;;;;;;19.72;33.97;98312.72;6971756;28;20697;-78
2023/04/11 00:27:00;;;;;;;2.30;2.10;;;;;;;19.72;33.98;98299.03;6970441;28;20214;-78
2023/04/11 00:30:22;;;;;;;2.57;1.93;;;;;;;19.51;34.43;98281.81;6970910;28;20219;-79
2023/04/11 00:33:43;;;;;;;2.80;2.30;;;;;;;19.39;34.84;98286.75;6972210;28;20226;-79
2023/04/11 00:37:06;;;;;;;3.00;2.17;;;;;;;19.63;34.36;98303.44;6971563;28;20209;-79
2023/04/11 00:40:27;;;;;;;3.47;2.07;;;;;;;19.58;34.57;98274.16;6970541;28;20636;-79
2023/04/11 00:43:49;;;;;;;3.57;2.40;;;;;;;19.44;34.82;98281.28;6970813;28;20231;-78
2023/04/11 00:47:11;;;;;;;3.53;2.30;;;;;;;19.01;35.84;98300.09;6970187;28;20236;-80
2023/04/11 00:50:33;;;;;;;3.13;2.10;;;;;;;19.12;35.75;98302.59;6970800;28;20240;-79
2023/04/11 00:53:56;;;;;;;3.63;1.70;;;;;;;19.39;35.29;98286.75;6971237;28;20222;-80
2023/04/11 00:57:17;;;;;;;2.33;2.03;;;;;;;19.10;36.82;98279.34;6970743;28;20207;-78
2023/04/11 01:00:40;;;;;;;2.87;1.70;;;;;;;19.30;36.26;98282.94;6970313;28;20665;-79
2023/04/11 01:04:01;;;;;;;2.40;2.07;;;;;;;19.11;38.46;98278.25;6970575;28;20810;-79
2023/04/11 01:07:24;;;;;;;4.17;2.00;;;;;;;18.57;39.41;98272.41;6970546;28;20264;-79
2023/04/11 01:10:47;;;;;;;3.93;2.40;;;;;;;18.78;39.27;98276.84;6970161;28;20202;-78
2023/04/11 01:14:08;;;;;;;2.63;2.10;;;;;;;19.15;37.95;98262.94;6970230;28;20227;-79
2023/04/11 01:17:31;;;;;;;2.67;2.20;;;;;;;19.35;37.35;98282.13;6969887;28;20301;-78
2023/04/11 01:20:52;;;;;;;4.87;2.07;;;;;;;19.07;37.19;98277.97;6969304;28;20221;-78
2023/04/11 01:24:15;;;;;;;2.43;1.97;;;;;;;18.90;38.00;98287.50;6970190;28;20234;-79
2023/04/11 01:27:37;;;;;;;2.03;1.80;;;;;;;19.03;38.60;98292.44;6971402;28;20208;-79
2023/04/11 01:30:58;;;;;;;2.67;2.43;;;;;;;19.04;39.18;98272.25;6969980;28;20218;-78
2023/04/11 01:34:21;;;;;;;2.83;2.13;;;;;;;18.65;39.22;98284.72;6969421;28;20287;-79
2023/04/11 01:37:42;;;;;;;2.63;2.10;;;;;;;18.72;40.21;98294.31;6969804;28;20616;-78
2023/04/11 01:41:07;;;;;;;2.10;1.87;;;;;;;18.89;39.36;98303.09;6969055;28;20208;-80
2023/04/11 01:44:28;;;;;;;2.93;1.90;;;;;;;18.39;40.11;98294.72;6970185;28;20784;-79
2023/04/11 01:47:50;;;;;;;2.30;2.10;;;;;;;18.63;41.45;98303.28;6968791;28;20649;-78
2023/04/11 01:51:12;;;;;;;2.10;1.90;;;;;;;18.70;41.61;98290.19;6968927;28;20845;-79
2023/04/11 01:54:33;;;;;;;3.80;2.33;;;;;;;18.22;44.25;98299.53;6969137;28;20218;-78
2023/04/11 01:57:56;;;;;;;2.50;2.10;;;;;;;18.07;43.80;98298.66;6969449;28;20288;-79
2023/04/11 02:01:18;;;;;;;3.73;2.10;;;;;;;17.92;44.75;98307.56;6968717;28;20276;-78
2023/04/11 02:04:40;;;;;;;2.40;2.20;;;;;;;18.10;45.47;98298.94;6968820;28;20223;-78
2023/04/11 02:08:01;;;;;;;2.40;2.20;;;;;;;18.29;44.73;98310.22;6969511;28;20206;-78
2023/04/11 02:11:23;;;;;;;2.57;2.20;;;;;;;18.46;45.16;98319.88;6968574;28;20316;-78
2023/04/11 02:14:46;;;;;;;5.03;2.47;;;;;;;18.59;44.57;98327.59;6968695;28;20226;-78
2023/04/11 02:18:08;;;;;;;2.80;2.30;;;;;;;18.19;46.11;98330.09;6969081;28;20230;-79
2023/04/11 02:21:29;;;;;;;2.10;2.00;;;;;;;17.95;46.82;98345.25;6967851;28;20213;-79
2023/04/11 02:24:52;;;;;;;3.73;2.47;;;;;;;16.91;51.63;98354.09;6968978;28;20279;-79
2023/04/11 02:28:13;;;;;;;5.20;3.03;;;;;;;15.78;58.14;98379.50;6968989;28;20210;-78
2023/04/11 02:31:36;;;;;;;2.53;2.33;;;;;;;16.06;58.42;98376.66;6967846;28;20637;-77
2023/04/11 02:34:57;;;;;;;2.60;2.40;;;;;;;16.23;57.77;98391.06;6968818;28;20291;-78
2023/04/11 02:38:19;;;;;;;2.30;2.10;;;;;;;15.98;58.90;98412.44;6968743;28;20560;-78
2023/04/11 02:41:41;;;;;;;2.20;2.00;;;;;;;16.02;59.02;98406.25;6967707;28;20292;-78
2023/04/11 02:45:02;;;;;;;2.10;2.00;;;;;;;15.80;59.76;98391.78;6968541;28;20349;-79
2023/04/11 02:48:25;;;;;;;5.10;2.30;;;;;;;15.92;60.10;98378.09;6967055;28;20208;-79
2023/04/11 02:51:47;;;;;;;2.50;2.30;;;;;;;16.03;60.00;98379.88;6970901;28;20481;-78
2023/04/11 02:55:09;;;;;;;2.27;1.90;;;;;;;16.16;59.13;98391.22;6973758;28;20255;-78
2023/04/11 02:58:30;;;;;;;2.30;2.20;;;;;;;16.00;60.28;98392.09;6973765;28;20226;-79
2023/04/11 03:01:57;;;;;;;2.70;2.27;;;;;;;16.17;59.77;98386.63;6972978;28;20574;-78
2023/04/11 03:05:20;;;;;;;2.70;1.70;;;;;;;16.15;59.78;98380.63;6973659;28;20882;-79
2023/04/11 03:08:41;;;;;;;2.70;2.33;;;;;;;16.17;59.65;98383.91;6973798;28;20683;-78
2023/04/11 03:12:03;;;;;;;2.10;2.00;;;;;;;16.03;59.86;98390.75;6972668;28;20270;-78
2023/04/11 03:15:25;;;;;;;2.27;2.07;;;;;;;15.98;59.89;98398.84;6973247;28;20230;-78
2023/04/11 03:18:47;;;;;;;2.20;2.00;;;;;;;15.47;60.07;98342.88;6973066;28;20229;-78
2023/04/11 03:22:10;;;;;;;1.83;1.73;;;;;;;15.85;59.75;98416.31;6972574;28;20562;-79
2023/04/11 03:25:32;;;;;;;1.60;1.50;;;;;;;15.93;59.25;98412.38;6972837;28;20697;-78
2023/04/11 03:28:53;;;;;;;1.97;1.83;;;;;;;15.77;59.85;98391.44;6972879;28;20262;-78
2023/04/11 03:32:15;;;;;;;2.00;1.80;;;;;;;15.72;59.76;98407.66;6972061;28;20572;-78
2023/04/11 03:35:36;;;;;;;1.80;1.70;;;;;;;15.76;60.00;98406.91;6973848;28;20233;-79
2023/04/11 03:38:59;;;;;;;2.17;1.77;;;;;;;15.43;59.96;98404.22;6972890;28;20286;-78
2023/04/11 03:42:21;;;;;;;2.53;1.90;;;;;;;15.35;60.05;98396.47;6972065;28;20673;-78
2023/04/11 03:45:42;;;;;;;3.57;1.87;;;;;;;15.00;60.73;98381.38;6972764;28;20276;-79
2023/04/11 03:49:04;;;;;;;1.70;1.60;;;;;;;15.26;60.07;98370.72;6995299;28;20210;-78
2023/04/11 03:52:25;;;;;;;3.33;1.90;;;;;;;15.27;60.43;98390.59;6998626;28;20201;-79
2023/04/11 03:55:48;;;;;;;1.77;1.67;;;;;;;15.46;59.85;98392.03;6999038;28;20232;-78
2023/04/11 03:59:10;;;;;;;3.30;1.73;;;;;;;15.11;58.45;98356.88;6984020;28;20237;-78
2023/04/11 04:02:31;;;;;;;1.90;1.70;;;;;;;15.20;58.76;98387.16;6979152;28;20662;-78
2023/04/11 04:05:53;;;;;;;4.83;2.07;;;;;;;14.94;59.41;98402.19;6998325;28;20237;-79
2023/04/11 04:09:14;;;;;;;3.40;1.87;;;;;;;15.35;58.77;98398.34;6998967;28;20212;-78
2023/04/11 04:12:37;;;;;;;2.07;1.73;;;;;;;15.25;58.65;98398.13;6998377;28;20614;-79
2023/04/11 04:15:58;;;;;;;4.80;2.20;;;;;;;15.24;58.25;98412.78;6998984;28;20223;-78
2023/04/11 04:19:20;;;;;;;4.00;2.53;;;;;;;15.09;58.86;98390.75;6998757;28;20437;-78
2023/04/11 04:22:41;;;;;;;3.70;2.10;;;;;;;15.19;58.67;98418.13;6997749;28;20206;-78
2023/04/11 04:26:03;;;;;;;4.53;2.30;;;;;;;15.25;58.37;98419.84;6998629;28;20225;-78
2023/04/11 04:29:32;;;;;;;3.50;2.00;;;;;;;15.30;58.20;98419.97;6998601;28;20208;-78
2023/04/11 04:32:57;;;;;;;1.90;1.80;;;;;;;15.09;58.52;98431.50;6998017;28;20201;-79
2023/04/11 04:36:19;;;;;;;3.60;1.97;;;;;;;15.26;58.90;98440.50;6998087;28;20346;-78
2023/04/11 04:39:40;;;;;;;5.40;2.10;;;;;;;14.88;59.63;98443.88;6997987;28;20291;-78
2023/04/11 04:43:02;;;;;;;2.63;1.90;;;;;;;14.97;58.93;98452.44;6998165;28;20237;-80
2023/04/11 04:46:25;;;;;;;2.20;1.73;;;;;;;14.31;61.06;98469.22;6998003;28;20212;-79
2023/04/11 04:49:47;;;;;;;3.93;1.97;;;;;;;14.78;59.65;98469.97;6987708;28;20214;-78
2023/04/11 04:53:08;;;;;;;3.20;2.03;;;;;;;14.53;60.28;98469.44;6994660;28;20329;-78
2023/04/11 04:56:30;;;;;;;5.70;2.23;;;;;;;14.18;61.02;98471.31;6997015;28;20345;-79
2023/04/11 04:59:52;;;;;;;4.63;2.17;;;;;;;14.40;60.03;98492.19;6980421;28;20677;-79
2023/04/11 05:03:16;;;;;;;4.67;2.00;;;;;;;14.13;60.54;98485.59;6969425;28;20211;-79
2023/04/11 05:06:37;;;;;;;3.07;1.90;;;;;;;14.20;61.07;98499.03;6989855;28;20257;-79
2023/04/11 05:09:59;;;;;;;2.13;1.80;;;;;;;14.28;59.85;98493.28;6995277;28;20202;-79
2023/04/11 05:13:20;;;;;;;3.23;2.10;;;;;;;14.08;59.91;98526.13;6996476;28;20225;-79
2023/04/11 05:16:42;;;;;;;2.83;1.90;;;;;;;13.98;60.46;98533.19;6996611;28;20213;-79
2023/04/11 05:20:07;;;;;;;3.33;1.90;;;;;;;14.20;59.93;98542.41;6996315;28;20235;-79
2023/04/11 05:23:29;;;;;;;3.53;1.83;;;;;;;13.77;59.25;98550.81;6987258;28;20225;-79
2023/04/11 05:26:50;;;;;;;1.77;1.67;;;;;;;13.95;58.41;98553.44;6983773;28;20268;-79
2023/04/11 05:30:13;;;;;;;2.20;1.73;;;;;;;13.38;59.44;98545.94;6996157;28;20264;-78
2023/04/11 05:33:35;;;;;;;2.30;1.70;;;;;;;13.63;58.92;98549.34;6995797;28;20266;-79
2023/04/11 05:36:58;;;;;;;3.03;1.70;;;;;;;13.69;57.92;98558.44;6996669;28;20296;-80
2023/04/11 05:40:20;;;;;;;3.23;1.77;;;;;;;13.60;57.55;98562.53;6986679;28;20948;-78
2023/04/11 05:43:42;;;;;;;4.07;1.90;;;;;;;13.30;58.13;98556.28;6984945;28;20953;-78
2023/04/11 05:47:03;;;;;;;3.13;1.70;;;;;;;13.61;56.92;98559.59;7011623;28;20261;-78
2023/04/11 05:50:26;;;;;;;2.73;2.00;;;;;;;13.43;56.88;98562.34;7023880;28;20603;-77
2023/04/11 05:53:49;;;;;;;2.27;2.17;;;;;;;13.55;56.34;98563.22;7025428;28;20271;-78
2023/04/11 05:57:10;;;;;;;2.30;1.90;;;;;;;13.29;56.73;98539.19;7024906;28;20262;-78
2023/04/11 06:00:32;;;;;;;1.90;1.80;;;;;;;13.77;56.26;98560.81;7023404;28;20313;-79
2023/04/11 06:03:53;;;;;;;4.10;1.90;;;;;;;13.70;55.28;98558.19;6994764;28;20282;-78
2023/04/11 06:07:15;;;;;;;3.97;1.93;;;;;;;13.83;54.56;98568.84;6996038;28;20294;-77
2023/04/11 06:10:38;;;;;;;1.77;1.67;;;;;;;13.93;54.12;98557.44;6994806;28;20300;-78
2023/04/11 06:13:59;;;;;;;3.43;1.70;;;;;;;13.64;55.34;98574.56;6967196;28;20339;-76
2023/04/11 06:17:21;;;;;;;1.80;1.70;;;;;;;13.36;56.01;98571.59;6967957;28;20207;-77
2023/04/11 06:20:42;;;;;;;2.70;2.00;;;;;;;13.60;54.85;98570.66;6967681;28;20230;-77
2023/04/11 06:24:07;;;;;;;2.20;1.90;;;;;;;13.59;55.09;98580.69;6967347;28;20261;-76
2023/04/11 06:27:31;;;;;;;4.37;2.00;;;;;;;13.76;55.50;98589.78;6973240;28;20677;-76
2023/04/11 06:30:53;;;;;;;1.63;1.53;;;;;;;13.59;54.47;98579.84;6973904;28;20223;-77
2023/04/11 06:34:14;;;;;;;5.03;2.00;;;;;;;13.77;54.71;98579.78;6973747;28;20229;-76
2023/04/11 06:37:35;;;;;;;2.63;2.10;;;;;;;13.80;54.28;98593.69;6998073;28;20205;-76
2023/04/11 06:40:57;;;;;;;1.77;1.53;;;;;;;13.91;54.15;98606.47;7000511;28;20227;-77
2023/04/11 06:44:20;;;;;;;2.17;1.70;;;;;;;14.12;52.47;98600.53;7000268;28;20275;-75
2023/04/11 06:47:41;;;;;;;2.07;1.77;;;;;;;13.92;54.21;98615.44;7000968;28;20289;-75
2023/04/11 06:51:03;;;;;;;2.53;1.80;;;;;;;13.89;53.80;98613.16;7000187;28;20200;-76
2023/04/11 06:54:24;;;;;;;2.37;1.90;;;;;;;13.80;53.84;98634.34;7001653;28;20778;-76
2023/04/11 06:57:46;;;;;;;3.57;2.10;;;;;;;14.10;52.73;98621.59;7001118;28;20724;-76
2023/04/11 07:01:09;;;;;;;2.53;1.90;;;;;;;14.04;52.98;98625.22;6999586;28;20228;-76
2023/04/11 07:04:30;;;;;;;3.30;1.80;;;;;;;13.86;53.10;98630.72;7001139;28;20232;-79
2023/04/11 07:07:53;;;;;;;2.03;1.60;;;;;;;13.82;53.12;98640.38;7000479;28;20211;-77
2023/04/11 07:11:14;;;;;;;5.40;2.17;;;;;;;14.11;52.46;98623.25;6999520;28;20210;-79
2023/04/11 07:14:36;;;;;;;1.73;1.47;;;;;;;13.77;53.38;98640.22;7000840;28;20751;-78
2023/04/11 07:17:58;;;;;;;4.33;1.97;;;;;;;13.86;53.64;98630.72;7000549;28;20209;-79
2023/04/11 07:21:20;;;;;;;3.03;2.00;;;;;;;13.88;53.68;98642.16;6999928;28;20318;-77
2023/04/11 07:24:42;;;;;;;3.60;2.10;;;;;;;13.85;53.99;98653.44;6999986;28;20253;-79
2023/04/11 07:28:07;;;;;;;2.73;1.80;;;;;;;13.73;54.38;98655.28;7000592;28;20689;-78
2023/04/11 07:31:28;;;;;;;4.27;2.00;;;;;;;13.60;54.98;98654.63;6996963;28;20215;-78
2023/04/11 07:34:51;;;;;;;3.40;2.00;;;;;;;13.94;54.27;98657.50;6996322;28;20223;-79
2023/04/11 07:38:14;;;;;;;1.70;1.60;;;;;;;14.43;53.23;98675.34;6999095;28;20272;-78
2023/04/11 07:41:36;;;;;;;1.60;1.50;;;;;;;13.97;53.82;98667.03;6998938;28;20270;-79
2023/04/11 07:44:57;;;;;;;1.77;1.67;;;;;;;14.11;53.56;98673.94;7003295;28;20231;-77
2023/04/11 07:48:20;;;;;;;4.00;2.00;;;;;;;13.95;54.26;98658.31;7005260;28;20621;-79
2023/04/11 07:51:43;;;;;;;2.67;1.80;;;;;;;14.43;53.36;98662.63;6999813;28;20291;-78
2023/04/11 07:55:06;;;;;;;3.97;1.87;;;;;;;13.97;54.34;98657.03;6994536;28;20311;-79
2023/04/11 07:58:28;;;;;;;5.70;2.23;;;;;;;14.65;52.34;98680.00;6984810;28;20339;-77
2023/04/11 08:01:58;;;;;;;3.53;1.90;;;;;;;14.29;53.21;98666.59;6988714;28;20252;-77
2023/04/11 08:05:19;;;;;;;5.27;2.40;;;;;;;14.35;53.65;98654.84;6984163;28;20305;-78
2023/04/11 08:08:42;;;;;;;3.20;1.67;;;;;;;14.65;51.45;98658.31;6987354;28;20224;-78
2023/04/11 08:12:05;;;;;;;5.67;2.30;;;;;;;15.39;50.50;98668.47;6985413;28;20296;-78
2023/04/11 08:15:26;;;;;;;3.67;1.90;;;;;;;15.41;49.36;98671.75;6995950;28;20246;-77
2023/04/11 08:18:48;;;;;;;4.87;2.20;;;;;;;15.61;49.08;98675.75;6997878;28;20238;-78
2023/04/11 08:22:09;;;;;;;3.60;2.17;;;;;;;15.42;46.27;98663.38;6992316;28;20236;-79
2023/04/11 08:25:32;;;;;;;8.83;2.10;;;;;;;15.62;46.71;98666.50;6998293;28;20229;-78
2023/04/11 08:28:54;;;;;;;3.97;2.40;;;;;;;15.02;48.84;98678.72;6993802;28;20666;-80
2023/04/11 08:32:16;;;;;;;4.80;2.60;;;;;;;15.55;46.76;98670.41;6995471;28;20216;-78
2023/04/11 08:35:41;;;;;;;7.00;2.30;;;;;;;15.46;45.41;98685.47;6992942;28;20221;-78
2023/04/11 08:39:03;;;;;;;3.13;2.17;;;;;;;15.45;46.00;98679.19;6992430;28;20209;-78
2023/04/11 08:42:27;;;;;;;5.03;3.00;;;;;;;15.99;43.98;98686.81;6986828;28;20264;-78
2023/04/11 08:45:49;;;;;;;5.33;2.27;;;;;;;15.38;45.66;98694.81;6995251;28;20286;-78
2023/04/11 08:49:11;;;;;;;3.57;2.10;;;;;;;15.99;44.09;98695.00;6995884;28;20272;-79
2023/04/11 08:52:33;;;;;;;5.57;2.17;;;;;;;15.65;44.53;98697.81;6981065;28;20251;-78
2023/04/11 08:55:54;;;;;;;3.23;1.90;;;;;;;15.31;44.69;98699.50;6996972;28;20233;-80
2023/04/11 08:59:17;;;;;;;8.07;2.30;;;;;;;15.62;44.40;98682.81;6997314;28;20254;-80
2023/04/11 09:02:54;;;;;;;5.20;2.30;;;;;;;16.03;42.43;98692.59;6980358;28;20300;-79
2023/04/11 09:06:16;;;;;;;4.07;2.13;;;;;;;15.99;42.87;98675.16;6990878;28;20226;-81
2023/04/11 09:09:38;;;;;;;5.60;2.40;;;;;;;16.90;41.28;98684.69;6997004;28;20655;-79
2023/04/11 09:13:00;;;;;;;5.53;2.37;;;;;;;16.26;41.26;98687.91;6997381;28;20689;-78
2023/04/11 09:16:23;;;;;;;3.13;1.77;;;;;;;16.28;40.48;98693.91;6996481;28;20205;-80
2023/04/11 09:19:45;;;;;;;2.87;1.97;;;;;;;16.20;40.34;98683.44;6986961;28;20237;-79
2023/04/11 09:23:06;;;;;;;5.77;2.30;;;;;;;17.33;39.80;98676.63;6983274;28;20266;-81
2023/04/11 09:26:29;;;;;;;4.83;2.00;;;;;;;17.82;39.08;98677.59;6997650;28;20648;-80
2023/04/11 09:29:51;;;;;;;4.23;2.20;;;;;;;17.99;37.49;98672.88;6986943;28;20560;-83
2023/04/11 09:33:22;;;;;;;6.67;2.23;;;;;;;16.79;37.69;98658.38;6995969;28;20194;-81
2023/04/11 09:36:54;;;;;;;5.47;2.00;;;;;;;16.44;38.47;98673.28;6990146;28;20202;-81
2023/04/11 09:40:17;;;;;;;3.77;2.03;;;;;;;16.35;38.88;98610.25;6997760;28;20304;-84
2023/04/11 09:43:50;;;;;;;4.20;2.10;;;;;;;16.35;40.90;98669.28;6993410;28;20214;-80
2023/04/11 09:47:11;;;;;;;4.60;1.83;;;;;;;17.11;39.02;98670.31;6993218;28;20206;-80
2023/04/11 09:50:35;;;;;;;5.47;2.40;;;;;;;17.22;38.07;98666.66;7000185;28;20323;-78
2023/04/11 09:53:57;;;;;;;5.03;2.20;;;;;;;16.98;38.90;98667.94;6991538;28;20731;-83
2023/04/11 09:57:19;;;;;;;4.20;2.10;;;;;;;17.72;36.49;98661.09;6979130;28;20829;-81
2023/04/11 10:01:23;;;;;;;2.97;1.70;;;;;;;16.98;37.15;98618.91;6999845;28;20309;-79
2023/04/11 10:04:50;;;;;;;2.77;1.80;;;;;;;17.24;37.33;98659.06;6997071;28;20233;-79
2023/04/11 10:08:23;;;;;;;4.83;1.87;;;;;;;17.49;35.98;98672.25;7006816;28;20199;-79
2023/04/11 10:11:45;;;;;;;4.67;2.17;;;;;;;17.78;35.73;98684.63;6975306;28;20213;-82
2023/04/11 10:15:08;;;;;;;3.17;1.80;;;;;;;18.39;35.57;98673.34;6979044;28;20293;-84
2023/04/11 10:18:30;;;;;;;7.30;2.10;;;;;;;16.85;35.48;98689.22;6992696;28;20257;-79
2023/04/11 10:21:51;;;;;;;4.07;1.80;;;;;;;16.56;36.62;98682.19;6985117;28;20245;-81
2023/04/11 10:25:18;;;;;;;6.67;2.20;;;;;;;16.70;36.40;98675.38;6985015;28;20225;-86
2023/04/11 10:28:40;;;;;;;6.63;2.10;;;;;;;17.08;35.26;98665.38;6992741;28;20213;-79
2023/04/11 10:32:08;;;;;;;4.50;1.90;;;;;;;17.08;35.20;98675.44;6983523;28;20702;-80
2023/04/11 10:35:29;;;;;;;4.80;1.83;;;;;;;17.02;35.96;98679.16;6974354;28;20257;-81
2023/04/11 10:38:51;;;;;;;3.17;1.80;;;;;;;17.10;36.56;98668.66;6972320;28;20820;-79
2023/04/11 10:42:27;;;;;;;4.67;1.90;;;;;;;17.11;36.19;98658.59;6971838;28;20254;-80
2023/04/11 10:46:19;;;;;;;3.80;2.20;;;;;;;16.99;36.80;98685.13;6998258;28;20312;-81
2023/04/11 10:49:40;;;;;;;6.87;2.90;;;;;;;17.09;40.80;98694.25;6999073;28;20262;-80
2023/04/11 10:53:03;;;;;;;10.20;3.77;;;;;;;17.45;42.86;98687.47;6999818;28;20266;-80
2023/04/11 10:56:56;;;;;;;6.63;2.50;;;;;;;17.36;41.36;98697.09;6999369;28;20226;-80
2023/04/11 11:00:18;;;;;;;5.10;2.17;;;;;;;17.90;43.07;98694.34;6998802;28;20246;-80
2023/04/11 11:03:40;;;;;;;3.73;2.07;;;;;;;17.86;40.15;98687.72;7001518;28;20317;-80
2023/04/11 11:07:03;;;;;;;4.20;2.23;;;;;;;16.51;41.20;98646.75;6985643;28;20211;-82
2023/04/11 11:10:38;;;;;;;6.23;2.03;;;;;;;16.55;39.84;98686.00;6997380;28;20236;-81
2023/04/11 11:14:00;;;;;;;3.90;2.00;;;;;;;17.07;38.07;98688.25;7004836;28;20229;-78
2023/04/11 11:17:23;;;;;;;3.63;1.90;;;;;;;17.11;38.45;98685.84;7003339;28;20274;-79
2023/04/11 11:20:44;;;;;;;5.33;2.40;;;;;;;17.36;36.72;98697.94;6995839;28;20227;-79
2023/04/11 11:24:06;;;;;;;2.80;1.90;;;;;;;17.80;36.28;98699.66;6988612;28;20250;-80
2023/04/11 11:27:28;;;;;;;6.63;2.23;;;;;;;17.40;35.13;98695.56;7003788;28;20205;-78
2023/04/11 11:30:51;;;;;;;4.97;1.90;;;;;;;17.67;34.29;98689.13;7002991;28;20210;-78
2023/04/11 11:34:14;;;;;;;4.07;1.93;;;;;;;18.25;33.10;98672.91;7002901;28;20230;-79
2023/04/11 11:37:35;;;;;;;4.87;2.10;;;;;;;18.75;32.56;98689.00;7003774;28;20202;-79
2023/04/11 11:40:58;;;;;;;3.67;2.00;;;;;;;17.58;33.84;98681.66;7003509;28;20366;-79
2023/04/11 11:44:22;;;;;;;6.57;2.20;;;;;;;17.27;34.09;98683.09;7003889;28;20303;-79
2023/04/11 11:47:44;;;;;;;4.77;1.80;;;;;;;17.19;34.44;98675.34;7004180;28;20211;-79
2023/04/11 11:51:08;;;;;;;7.07;2.63;;;;;;;17.88;33.22;98679.31;6995767;28;20266;-79
2023/04/11 11:54:29;;;;;;;6.37;2.43;;;;;;;17.63;33.48;98684.44;7006176;28;20222;-79
2023/04/11 11:57:51;;;;;;;2.77;2.23;;;;;;;18.10;34.07;98685.56;7002688;28;20207;-81
2023/04/11 12:01:15;;;;;;;5.57;2.50;;;;;;;18.42;31.76;98683.75;7004658;28;20366;-81
2023/04/11 12:04:37;;;;;;;3.73;1.87;;;;;;;17.85;33.37;98687.97;7004078;28;20214;-81
2023/04/11 12:08:01;;;;;;;6.50;2.30;;;;;;;17.89;32.51;98686.41;7005990;28;20575;-79
2023/04/11 12:11:24;;;;;;;5.23;2.20;;;;;;;17.98;32.70;98693.88;7004062;28;20288;-80
2023/04/11 12:14:52;;;;;;;7.77;2.10;;;;;;;18.04;32.35;98675.69;7006270;28;20226;-76
2023/04/11 12:18:14;;;;;;;7.87;2.67;;;;;;;17.23;33.76;98681.13;7005229;28;20281;-77
2023/04/11 12:21:35;;;;;;;5.80;2.00;;;;;;;17.60;33.62;98674.03;7001769;28;20229;-78
2023/04/11 12:25:06;;;;;;;5.70;2.17;;;;;;;17.68;32.87;98671.69;7003279;28;20313;-79
2023/04/11 12:28:27;;;;;;;3.50;2.10;;;;;;;18.25;32.20;98693.91;6994566;28;20297;-78
2023/04/11 12:31:48;;;;;;;4.97;2.13;;;;;;;18.27;33.09;98692.56;6993210;28;20274;-78
2023/04/11 12:35:10;;;;;;;3.97;2.20;;;;;;;18.44;32.19;98689.75;6973492;28;20222;-78
2023/04/11 12:38:32;;;;;;;4.27;2.00;;;;;;;17.95;31.69;98683.50;6974513;28;20291;-79
2023/04/11 12:41:55;;;;;;;2.50;1.70;;;;;;;17.55;32.66;98682.13;6980392;28;20237;-79
2023/04/11 12:45:17;;;;;;;5.03;2.13;;;;;;;18.21;32.34;98693.59;6998743;28;20278;-79
2023/04/11 12:48:38;;;;;;;5.87;2.53;;;;;;;18.52;31.33;98690.13;6998268;28;20832;-79
2023/04/11 12:52:00;;;;;;;3.80;1.90;;;;;;;18.68;30.78;98693.81;6997415;28;20219;-79
2023/04/11 12:55:21;;;;;;;6.60;2.23;;;;;;;18.90;30.69;98689.09;6998438;28;20649;-78
2023/04/11 12:58:44;;;;;;;6.53;2.10;;;;;;;18.57;31.13;98684.72;6976930;28;20349;-78
2023/04/11 13:02:06;;;;;;;3.80;2.03;;;;;;;17.71;31.90;98695.75;6970442;28;20230;-79
2023/04/11 13:05:28;;;;;;;5.03;2.10;;;;;;;17.70;32.92;98688.59;6989585;28;20702;-78
2023/04/11 13:08:49;;;;;;;5.27;2.20;;;;;;;17.67;32.78;98696.47;6995926;28;20289;-78
2023/04/11 13:12:11;;;;;;;3.77;1.70;;;;;;;18.03;31.88;98680.28;6987331;28;20643;-78
2023/04/11 13:15:34;;;;;;;5.77;1.70;;;;;;;18.47;31.84;98686.53;6979787;28;20279;-79
2023/04/11 13:18:55;;;;;;;4.40;1.77;;;;;;;18.45;32.05;98683.25;6970140;28;20294;-80
2023/04/11 13:22:17;;;;;;;5.27;1.63;;;;;;;17.84;32.42;98675.41;6991564;28;20294;-79
2023/04/11 13:25:38;;;;;;;5.10;2.07;;;;;;;18.72;31.48;98679.41;6974198;28;20313;-78
2023/04/11 13:29:00;;;;;;;3.50;1.83;;;;;;;18.32;31.73;98678.19;6982826;28;20336;-78
2023/04/11 13:32:23;;;;;;;4.03;2.20;;;;;;;18.47;31.33;98681.91;6986951;28;20355;-78
2023/04/11 13:35:44;;;;;;;10.60;2.33;;;;;;;18.35;31.70;98683.94;6991336;28;20218;-80
2023/04/11 13:39:06;;;;;;;3.73;1.80;;;;;;;17.84;31.80;98675.41;6998516;28;20238;-79
2023/04/11 13:42:28;;;;;;;4.90;2.07;;;;;;;19.08;30.17;98675.03;6995780;28;20679;-78
2023/04/11 13:45:49;;;;;;;4.63;2.00;;;;;;;18.12;31.15;98680.66;6995934;28;20221;-77
2023/04/11 13:49:12;;;;;;;10.57;2.50;;;;;;;18.77;30.30;98674.00;6996706;28;20209;-77
2023/04/11 13:52:33;;;;;;;3.00;1.80;;;;;;;17.86;31.39;98668.63;6988919;28;20199;-77
2023/04/11 13:55:55;;;;;;;5.53;1.93;;;;;;;17.52;31.64;98672.56;6995731;28;20264;-78
2023/04/11 13:59:17;;;;;;;4.17;1.83;;;;;;;17.91;31.04;98681.50;6971124;28;20626;-76
2023/04/11 14:02:39;;;;;;;6.07;2.23;;;;;;;17.52;31.53;98669.03;6968763;28;20317;-77
2023/04/11 14:06:02;;;;;;;3.97;2.17;;;;;;;18.23;30.53;98676.97;6970847;28;20229;-78
2023/04/11 14:09:23;;;;;;;3.20;1.90;;;;;;;17.86;31.32;98671.38;6995382;28;20561;-77
2023/04/11 14:12:45;;;;;;;4.83;1.80;;;;;;;18.12;30.39;98677.94;6995145;28;20206;-77
2023/04/11 14:16:07;;;;;;;3.97;2.00;;;;;;;18.18;29.77;98666.84;6995849;28;20714;-77
2023/04/11 14:19:29;;;;;;;4.87;2.03;;;;;;;18.14;30.67;98671.16;6993632;28;20214;-78
2023/04/11 14:22:52;;;;;;;6.37;1.70;;;;;;;17.67;31.01;98680.13;6994810;28;20599;-77
2023/04/11 14:26:13;;;;;;;5.33;1.70;;;;;;;18.00;30.14;98669.91;6994904;28;20274;-77
2023/04/11 14:29:36;;;;;;;4.33;1.90;;;;;;;17.93;29.77;98668.47;6993900;28;20256;-79
2023/04/11 14:32:57;;;;;;;3.10;1.70;;;;;;;18.17;29.41;98664.34;6994238;28;20205;-77
2023/04/11 14:36:19;;;;;;;6.63;2.30;;;;;;;18.33;29.16;98677.13;6973590;28;20573;-77
2023/04/11 14:39:42;;;;;;;3.50;2.00;;;;;;;18.06;29.09;98668.88;6964903;28;20352;-77
2023/04/11 14:43:05;;;;;;;4.33;1.90;;;;;;;17.96;29.30;98666.03;6987459;28;20221;-77
2023/04/11 14:46:27;;;;;;;3.40;1.63;;;;;;;17.62;29.29;98672.69;6998916;28;20214;-77
2023/04/11 14:49:48;;;;;;;4.40;1.43;;;;;;;17.62;30.28;98672.69;7003439;28;20206;-76
2023/04/11 14:53:10;;;;;;;4.90;1.80;;;;;;;18.01;28.40;98659.81;7001490;28;20619;-77
2023/04/11 14:56:33;;;;;;;4.93;1.80;;;;;;;17.67;28.85;98658.31;7001250;28;20340;-78
2023/04/11 14:59:58;;;;;;;2.60;1.87;;;;;;;18.20;28.85;98647.44;7001179;28;20258;-76
2023/04/11 15:03:20;;;;;;;6.53;1.90;;;;;;;17.84;29.36;98668.06;7003725;28;20244;-77
2023/04/11 15:06:42;;;;;;;2.33;1.80;;;;;;;18.00;28.91;98653.53;7000026;28;20210;-77
2023/04/11 15:10:04;;;;;;;3.10;1.90;;;;;;;18.03;28.83;98657.63;7001483;28;20673;-77
2023/04/11 15:13:27;;;;;;;3.33;1.70;;;;;;;17.52;29.14;98647.22;7007598;28;20226;-80
2023/04/11 15:16:50;;;;;;;4.20;1.97;;;;;;;17.39;29.25;98659.31;7005015;28;20351;-80
2023/04/11 15:20:13;;;;;;;3.13;2.10;;;;;;;17.80;29.29;98664.19;7003382;28;20252;-80
2023/04/11 15:23:34;;;;;;;3.83;1.90;;;;;;;17.71;29.70;98643.09;7001954;28;20241;-79
2023/04/11 15:26:56;;;;;;;4.33;2.40;;;;;;;17.86;28.74;98641.38;6980984;28;20205;-80
2023/04/11 15:30:19;;;;;;;4.13;2.20;;;;;;;18.34;28.92;98633.16;6990623;28;20221;-80
2023/04/11 15:33:41;;;;;;;5.13;1.93;;;;;;;18.30;27.79;98647.56;7001486;28;20225;-82
2023/04/11 15:37:02;;;;;;;6.40;1.87;;;;;;;17.83;28.29;98641.06;6989224;28;20571;-79
2023/04/11 15:40:24;;;;;;;4.97;1.70;;;;;;;17.99;28.09;98646.41;6992636;28;20248;-79
2023/04/11 15:43:46;;;;;;;5.70;2.00;;;;;;;18.24;28.99;98634.94;7000756;28;20230;-80
2023/04/11 15:47:10;;;;;;;2.77;1.90;;;;;;;18.00;28.90;98620.81;7005075;28;20201;-79
2023/04/11 15:50:32;;;;;;;5.37;1.70;;;;;;;18.03;30.17;98628.47;6995101;28;20721;-79
2023/04/11 15:53:54;;;;;;;3.03;1.97;;;;;;;17.92;29.97;98625.91;6997126;28;20296;-80